09S weather

Sullivan Lake State Airport
Metaline Falls, Washington, United States

Public forecast

Using degrees Fahrenheit for public forecast. Weather courtesy of forecast.io.

Closest aviation weather report (METAR) to Sullivan Lake State Airport

Report is more than 6 hours old.

Closest report is Castlegar/West Kootenay Regional Airport, 30.6 nm (56.6 km) NNW. Retrieved 2020/02/17 01:00 UTC (11 hours ago):

CYCG 170100Z 36008KT 15SM FEW060 SCT110 BKN230 03/M01 A2999 RMK SC1AC2CI3 LAST STFD OBS/NEXT 171400Z SLP174

Closest aviation forecast (TAF) to Sullivan Lake State Airport

Forecast is more than 12 hours old.

Closest forecast is Castlegar/West Kootenay Regional Airport, 30.6 nm (56.6 km) NNW. Retrieved 2020/02/16 19:00 UTC (17 hours ago):

TAF CYCG 161838Z 1619/1701 VRB03KT 5SM -SHRASN BR BKN015 OVC060 TEMPO 1619/1621 P6SM NSW SCT015 BKN060 FM162100 VRB03KT P6SM FEW020 BKN060 BKN080 TEMPO 1621/1701 P6SM -SHRA FEW020 OVC060 RMK NXT FCST WILL BE ISSUED AT 171545Z